Time;durP1;ratioP1;P1;durP2;ratioP2;P2;SDS_P1;SDS_P2;PMS_P1;PMS_P2;Temp;Humidity;BMP_temperature;BMP_pressure;BME280_temperature;BME280_humidity;BME280_pressure;Samples;Min_cycle;Max_cycle;Signal;HPM_P1;HPM_P2
2022/12/11 00:01:58;;;;;;;11.05;10.25;;;;;;;;;;5011028;28;20065;-58
2022/12/11 00:04:24;;;;;;;10.70;9.82;;;;;;;;;;5011665;28;20525;-59
2022/12/11 00:06:49;;;;;;;10.95;10.15;;;;;;;;;;5013651;28;20451;-58
2022/12/11 00:09:16;;;;;;;10.55;9.73;;;;;;;;;;5012553;28;20064;-59
2022/12/11 00:11:41;;;;;;;12.70;11.43;;;;;;;;;;5013227;28;20057;-59
2022/12/11 00:14:07;;;;;;;10.48;9.68;;;;;;;;;;5015244;28;20597;-58
2022/12/11 00:16:32;;;;;;;10.68;9.88;;;;;;;;;;5014356;28;20041;-58
2022/12/11 00:18:58;;;;;;;11.73;10.70;;;;;;;;;;5014371;28;20037;-59
2022/12/11 00:21:24;;;;;;;11.10;10.23;;;;;;;;;;5016479;28;20112;-58
2022/12/11 00:23:49;;;;;;;11.85;10.95;;;;;;;;;;5009473;28;20104;-58
2022/12/11 00:26:14;;;;;;;10.68;9.73;;;;;;;;;;5014338;28;20034;-58
2022/12/11 00:28:41;;;;;;;11.15;10.35;;;;;;;;;;5017913;28;20038;-58
2022/12/11 00:31:10;;;;;;;9.48;8.85;;;;;;;;;;5025035;28;20041;-58
2022/12/11 00:33:35;;;;;;;9.02;8.43;;;;;;;;;;5016957;28;20034;-58
2022/12/11 00:36:01;;;;;;;10.85;9.38;;;;;;;;;;5017807;28;20041;-58
2022/12/11 00:38:26;;;;;;;10.23;9.45;;;;;;;;;;5014402;28;20090;-59
2022/12/11 00:40:52;;;;;;;11.65;10.65;;;;;;;;;;5017560;28;20057;-58
2022/12/11 00:43:17;;;;;;;10.18;9.38;;;;;;;;;;5012010;28;20042;-58
2022/12/11 00:45:45;;;;;;;10.45;9.63;;;;;;;;;;5016247;28;20119;-62
2022/12/11 00:48:12;;;;;;;8.88;8.18;;;;;;;;;;5015483;28;20040;-64
2022/12/11 00:50:39;;;;;;;10.93;9.68;;;;;;;;;;5017187;28;20038;-63
2022/12/11 00:53:06;;;;;;;10.70;9.70;;;;;;;;;;5015996;28;20040;-62
2022/12/11 00:55:36;;;;;;;10.15;9.38;;;;;;;;;;5014895;28;20037;-63
2022/12/11 00:58:01;;;;;;;12.55;10.63;;;;;;;;;;5013690;28;20078;-64
2022/12/11 01:00:27;;;;;;;10.07;9.18;;;;;;;;;;5015165;28;20033;-62
2022/12/11 01:02:52;;;;;;;11.38;10.48;;;;;;;;;;5016188;28;20037;-63
2022/12/11 01:05:18;;;;;;;11.65;10.00;;;;;;;;;;5017583;28;20052;-62
2022/12/11 01:07:43;;;;;;;11.60;10.80;;;;;;;;;;5015102;28;20052;-63
2022/12/11 01:10:24;;;;;;;11.48;10.55;;;;;;;;;;5015864;28;20038;-63
2022/12/11 01:13:05;;;;;;;10.52;9.73;;;;;;;;;;5014743;28;20033;-63
2022/12/11 01:15:39;;;;;;;11.32;10.38;;;;;;;;;;5021131;28;20466;-63
2022/12/11 01:18:05;;;;;;;11.45;10.65;;;;;;;;;;5016911;28;20048;-57
2022/12/11 01:20:31;;;;;;;10.90;10.10;;;;;;;;;;5015258;28;20118;-58
2022/12/11 01:22:58;;;;;;;11.57;10.77;;;;;;;;;;5013413;28;20095;-58
2022/12/11 01:25:24;;;;;;;12.48;11.57;;;;;;;;;;5018643;28;20458;-58
2022/12/11 01:27:51;;;;;;;12.05;10.90;;;;;;;;;;5016388;28;20038;-57
2022/12/11 01:30:18;;;;;;;9.73;9.13;;;;;;;;;;5012540;28;20088;-57
2022/12/11 01:32:44;;;;;;;12.25;11.15;;;;;;;;;;5015608;28;20555;-58
2022/12/11 01:35:11;;;;;;;13.18;12.07;;;;;;;;;;5015676;28;20049;-58
2022/12/11 01:37:36;;;;;;;11.77;10.88;;;;;;;;;;5015131;28;20187;-58
2022/12/11 01:40:03;;;;;;;10.55;9.73;;;;;;;;;;5018098;28;20527;-58
2022/12/11 01:42:28;;;;;;;10.68;9.93;;;;;;;;;;5016008;28;20041;-57
2022/12/11 01:45:21;;;;;;;10.25;9.50;;;;;;;;;;5017295;28;20045;-58
2022/12/11 01:48:06;;;;;;;10.45;9.75;;;;;;;;;;5013983;28;20068;-58
2022/12/11 01:50:37;;;;;;;10.50;9.80;;;;;;;;;;5014006;28;20081;-58
2022/12/11 01:53:05;;;;;;;11.18;10.27;;;;;;;;;;5014117;28;20543;-58
2022/12/11 01:55:32;;;;;;;10.45;9.65;;;;;;;;;;5016725;28;20055;-57
2022/12/11 01:57:57;;;;;;;11.55;10.38;;;;;;;;;;5016161;28;20030;-58
2022/12/11 02:00:23;;;;;;;11.40;10.52;;;;;;;;;;5016769;28;20348;-58
2022/12/11 02:02:48;;;;;;;10.85;10.05;;;;;;;;;;5014153;28;20125;-58
2022/12/11 02:05:14;;;;;;;11.07;10.27;;;;;;;;;;5012609;28;20042;-58
2022/12/11 02:07:50;;;;;;;11.70;10.75;;;;;;;;;;5012528;28;20048;-62
2022/12/11 02:10:16;;;;;;;10.95;10.15;;;;;;;;;;5014102;28;20030;-63
2022/12/11 02:12:58;;;;;;;10.90;10.10;;;;;;;;;;5013430;28;20486;-62
2022/12/11 02:15:34;;;;;;;12.43;11.02;;;;;;;;;;5016974;28;20594;-58
2022/12/11 02:18:37;;;;;;;11.27;10.43;;;;;;;;;;5014608;28;20037;-58
2022/12/11 02:21:23;;;;;;;12.20;11.23;;;;;;;;;;5017210;28;21446;-58
2022/12/11 02:24:28;;;;;;;11.40;10.30;;;;;;;;;;5015160;28;20041;-58
2022/12/11 02:27:20;;;;;;;11.15;10.35;;;;;;;;;;5014017;28;20041;-58
2022/12/11 02:29:48;;;;;;;11.70;10.85;;;;;;;;;;5013960;28;20040;-58
2022/12/11 02:32:33;;;;;;;11.98;10.93;;;;;;;;;;5012324;28;20043;-58
2022/12/11 02:35:09;;;;;;;9.90;9.20;;;;;;;;;;5014317;28;20118;-63
2022/12/11 02:37:37;;;;;;;12.00;11.20;;;;;;;;;;5012546;28;20056;-63
2022/12/11 02:40:07;;;;;;;11.38;10.55;;;;;;;;;;5011451;28;20056;-63
2022/12/11 02:42:36;;;;;;;11.00;10.20;;;;;;;;;;5015351;28;20368;-63
2022/12/11 02:45:03;;;;;;;12.15;11.10;;;;;;;;;;5014076;28;20610;-63
2022/12/11 02:47:32;;;;;;;12.68;10.02;;;;;;;;;;5008617;28;20137;-63
2022/12/11 02:50:00;;;;;;;11.98;10.98;;;;;;;;;;5011452;28;20029;-63
2022/12/11 02:52:28;;;;;;;12.07;11.10;;;;;;;;;;5022086;28;20562;-64
2022/12/11 02:54:56;;;;;;;11.10;10.30;;;;;;;;;;5014259;28;20033;-64
2022/12/11 02:57:50;;;;;;;11.90;10.90;;;;;;;;;;5014280;28;20030;-63
2022/12/11 03:00:17;;;;;;;11.02;10.30;;;;;;;;;;5012778;28;20095;-63
2022/12/11 03:02:43;;;;;;;10.60;9.75;;;;;;;;;;5015467;28;20064;-64
2022/12/11 03:05:10;;;;;;;13.23;12.15;;;;;;;;;;5013375;28;20160;-63
2022/12/11 03:07:38;;;;;;;11.98;10.98;;;;;;;;;;5015425;28;20098;-64
2022/12/11 03:10:06;;;;;;;12.55;11.68;;;;;;;;;;5014009;28;20041;-63
2022/12/11 03:12:37;;;;;;;13.23;12.13;;;;;;;;;;5010388;28;20034;-63
2022/12/11 03:15:06;;;;;;;10.50;9.73;;;;;;;;;;5015066;28;20034;-64
2022/12/11 03:17:40;;;;;;;14.45;11.30;;;;;;;;;;5013186;28;20053;-64
2022/12/11 03:20:15;;;;;;;11.68;10.77;;;;;;;;;;5014741;28;20029;-64
2022/12/11 03:23:06;;;;;;;13.63;12.52;;;;;;;;;;5011095;28;20119;-64
2022/12/11 03:25:45;;;;;;;10.82;10.02;;;;;;;;;;5013028;28;20128;-63
2022/12/11 03:28:39;;;;;;;11.55;10.68;;;;;;;;;;5013767;28;20060;-63
2022/12/11 03:31:10;;;;;;;12.25;11.30;;;;;;;;;;5011303;28;20096;-64
2022/12/11 03:33:39;;;;;;;12.88;11.82;;;;;;;;;;5014419;28;20120;-63
2022/12/11 03:36:10;;;;;;;12.90;11.90;;;;;;;;;;5014406;28;20472;-64
2022/12/11 03:38:48;;;;;;;13.35;12.23;;;;;;;;;;5013382;28;20048;-63
2022/12/11 03:41:16;;;;;;;12.65;11.40;;;;;;;;;;5014717;28;20030;-63
2022/12/11 03:43:44;;;;;;;12.20;11.18;;;;;;;;;;5011541;28;20025;-63
2022/12/11 03:46:11;;;;;;;10.70;9.85;;;;;;;;;;5012637;28;20040;-63
2022/12/11 03:48:40;;;;;;;11.98;11.18;;;;;;;;;;5012424;28;20030;-63
2022/12/11 03:51:07;;;;;;;12.00;11.00;;;;;;;;;;5012506;28;20026;-63
2022/12/11 03:53:35;;;;;;;12.07;11.27;;;;;;;;;;5014344;28;20359;-63
2022/12/11 03:56:03;;;;;;;11.88;10.85;;;;;;;;;;5012979;28;20459;-63
2022/12/11 03:58:28;;;;;;;13.25;12.27;;;;;;;;;;5013401;28;20150;-63
2022/12/11 04:00:54;;;;;;;13.35;12.02;;;;;;;;;;5011799;28;20399;-63
2022/12/11 04:03:19;;;;;;;12.20;11.02;;;;;;;;;;5015827;28;20507;-64
2022/12/11 04:05:48;;;;;;;12.02;10.93;;;;;;;;;;5011806;28;20026;-63
2022/12/11 04:08:14;;;;;;;14.77;11.00;;;;;;;;;;5015843;28;20084;-64
2022/12/11 04:10:40;;;;;;;13.30;12.07;;;;;;;;;;5014237;28;20044;-63
2022/12/11 04:13:06;;;;;;;12.45;11.50;;;;;;;;;;5012697;28;20590;-63
2022/12/11 04:15:32;;;;;;;22.70;12.02;;;;;;;;;;5013473;28;20490;-63
2022/12/11 04:26:15;;;;;;;11.32;10.43;;;;;;;;;;5012533;28;20030;-63
2022/12/11 04:28:41;;;;;;;;;;;;;;;;;;5016038;28;20029;-63
2022/12/11 04:31:11;;;;;;;11.68;10.48;;;;;;;;;;5013313;28;19913;-63
2022/12/11 04:33:37;;;;;;;11.48;10.45;;;;;;;;;;5012977;28;20033;-63
2022/12/11 04:36:02;;;;;;;11.27;10.48;;;;;;;;;;5012188;28;20041;-64
2022/12/11 04:38:28;;;;;;;11.57;10.50;;;;;;;;;;5012012;28;20029;-63
2022/12/11 04:41:01;;;;;;;11.93;11.05;;;;;;;;;;5008452;28;20034;-63
2022/12/11 04:43:26;;;;;;;11.70;10.88;;;;;;;;;;5014582;28;20418;-63
2022/12/11 04:46:16;;;;;;;10.23;9.57;;;;;;;;;;5016041;28;20037;-60
2022/12/11 04:48:42;;;;;;;11.10;10.27;;;;;;;;;;5012282;28;20122;-63
2022/12/11 04:51:08;;;;;;;11.05;10.18;;;;;;;;;;5009195;28;20441;-62
2022/12/11 04:53:34;;;;;;;10.07;9.35;;;;;;;;;;5014552;28;20095;-63
2022/12/11 04:55:59;;;;;;;12.43;11.52;;;;;;;;;;5013546;28;20116;-63
2022/12/11 04:58:26;;;;;;;11.15;10.25;;;;;;;;;;5011680;28;20112;-63
2022/12/11 05:00:52;;;;;;;14.60;12.60;;;;;;;;;;5011848;28;20103;-63
2022/12/11 05:03:19;;;;;;;13.07;12.00;;;;;;;;;;5012164;28;20546;-64
2022/12/11 05:05:50;;;;;;;11.02;10.23;;;;;;;;;;5011453;28;20049;-63
2022/12/11 05:08:19;;;;;;;12.48;11.27;;;;;;;;;;5008703;28;20046;-64
2022/12/11 05:10:55;;;;;;;11.38;10.43;;;;;;;;;;5011870;28;20479;-63
2022/12/11 05:13:20;;;;;;;11.50;10.60;;;;;;;;;;5017447;28;20126;-63
2022/12/11 05:15:45;;;;;;;10.32;9.60;;;;;;;;;;5014607;28;20473;-63
2022/12/11 05:18:11;;;;;;;12.57;11.57;;;;;;;;;;5013724;28;20046;-64
2022/12/11 05:20:36;;;;;;;11.77;10.65;;;;;;;;;;5013098;28;20037;-63
2022/12/11 05:23:02;;;;;;;12.38;11.38;;;;;;;;;;5018219;28;20090;-63
2022/12/11 05:25:27;;;;;;;14.10;12.95;;;;;;;;;;5016050;28;20468;-63
2022/12/11 05:27:52;;;;;;;12.45;10.13;;;;;;;;;;5006547;28;20092;-63
2022/12/11 05:30:18;;;;;;;11.30;10.40;;;;;;;;;;5014256;28;20068;-64
2022/12/11 05:32:43;;;;;;;13.57;12.35;;;;;;;;;;5013750;28;20022;-63
2022/12/11 05:35:08;;;;;;;11.07;10.20;;;;;;;;;;5014001;28;20037;-63
2022/12/11 05:37:34;;;;;;;12.43;11.52;;;;;;;;;;5012971;28;20728;-63
2022/12/11 05:39:59;;;;;;;11.35;10.35;;;;;;;;;;5012161;28;20041;-63
2022/12/11 05:42:25;;;;;;;11.88;10.95;;;;;;;;;;5010613;28;20026;-63
2022/12/11 05:44:50;;;;;;;14.63;13.38;;;;;;;;;;5015256;28;20120;-63
2022/12/11 05:47:19;;;;;;;13.02;12.07;;;;;;;;;;5016984;28;20079;-63
2022/12/11 05:49:44;;;;;;;11.88;10.95;;;;;;;;;;5015414;28;20133;-65
2022/12/11 05:52:09;;;;;;;13.43;12.10;;;;;;;;;;5015344;28;20653;-63
2022/12/11 05:54:35;;;;;;;12.35;11.10;;;;;;;;;;5014727;28;20029;-64
2022/12/11 05:57:00;;;;;;;13.43;12.20;;;;;;;;;;5012944;28;20064;-63
2022/12/11 05:59:26;;;;;;;13.82;12.68;;;;;;;;;;5018046;28;20042;-63
2022/12/11 06:01:51;;;;;;;11.95;10.75;;;;;;;;;;5017893;28;20041;-64
2022/12/11 06:04:16;;;;;;;11.40;10.35;;;;;;;;;;5013823;28;20043;-65
2022/12/11 06:06:45;;;;;;;12.60;11.40;;;;;;;;;;5014144;28;20041;-64
2022/12/11 06:09:13;;;;;;;12.13;10.88;;;;;;;;;;5011808;28;20036;-64
2022/12/11 06:11:38;;;;;;;10.55;9.73;;;;;;;;;;5023713;28;20040;-63
2022/12/11 06:14:04;;;;;;;12.10;10.90;;;;;;;;;;5014958;28;20041;-63
2022/12/11 06:16:30;;;;;;;11.65;10.75;;;;;;;;;;5047472;28;20124;-64
2022/12/11 06:18:56;;;;;;;12.27;11.18;;;;;;;;;;5013015;28;20034;-64
2022/12/11 06:21:25;;;;;;;13.55;12.25;;;;;;;;;;5016950;28;20582;-64
2022/12/11 06:23:53;;;;;;;12.95;11.75;;;;;;;;;;5015472;28;20144;-64
2022/12/11 06:26:19;;;;;;;15.90;14.50;;;;;;;;;;5010901;28;20040;-63
2022/12/11 06:28:45;;;;;;;13.27;12.18;;;;;;;;;;5013216;28;20030;-66
2022/12/11 06:31:11;;;;;;;12.40;11.23;;;;;;;;;;5012081;28;20033;-70
2022/12/11 06:33:37;;;;;;;15.13;13.60;;;;;;;;;;5013518;28;20738;-64
2022/12/11 06:36:22;;;;;;;13.43;12.43;;;;;;;;;;5014040;28;20472;-65
2022/12/11 06:38:48;;;;;;;14.00;12.65;;;;;;;;;;5022667;28;20033;-66
2022/12/11 06:41:14;;;;;;;11.65;10.82;;;;;;;;;;5013676;28;20041;-65
2022/12/11 06:43:40;;;;;;;11.75;10.95;;;;;;;;;;5015455;28;20594;-60
2022/12/11 06:46:07;;;;;;;10.95;10.15;;;;;;;;;;5010682;28;20053;-60
2022/12/11 06:48:33;;;;;;;10.00;9.27;;;;;;;;;;5043738;28;20037;-58
2022/12/11 06:50:59;;;;;;;11.55;10.73;;;;;;;;;;5013617;28;20037;-58
2022/12/11 06:53:24;;;;;;;12.02;11.02;;;;;;;;;;5013067;28;20442;-63
2022/12/11 06:55:50;;;;;;;12.27;11.27;;;;;;;;;;5016525;28;20375;-64
2022/12/11 06:58:15;;;;;;;12.15;11.00;;;;;;;;;;5005338;28;20141;-65
2022/12/11 07:00:41;;;;;;;12.35;11.35;;;;;;;;;;5016127;28;20048;-64
2022/12/11 07:03:06;;;;;;;12.05;10.77;;;;;;;;;;5013512;28;20530;-66
2022/12/11 07:05:32;;;;;;;14.45;12.68;;;;;;;;;;5016641;28;20029;-59
2022/12/11 07:07:58;;;;;;;10.85;10.00;;;;;;;;;;5014564;28;20033;-59
2022/12/11 07:10:24;;;;;;;11.90;11.00;;;;;;;;;;5010884;28;20102;-59
2022/12/11 07:12:52;;;;;;;12.75;11.77;;;;;;;;;;5014286;28;20044;-60
2022/12/11 07:15:17;;;;;;;13.32;12.05;;;;;;;;;;5011651;28;20045;-59
2022/12/11 07:17:43;;;;;;;13.18;11.95;;;;;;;;;;5013609;28;20025;-59
2022/12/11 07:20:09;;;;;;;12.23;11.25;;;;;;;;;;5010954;28;20463;-65
2022/12/11 07:22:34;;;;;;;11.98;11.10;;;;;;;;;;5012942;28;20036;-65
2022/12/11 07:25:00;;;;;;;13.45;12.07;;;;;;;;;;5016028;28;20044;-66
2022/12/11 07:27:25;;;;;;;13.25;11.85;;;;;;;;;;5011342;28;20124;-66
2022/12/11 07:29:51;;;;;;;11.93;11.02;;;;;;;;;;5016183;28;20042;-65
2022/12/11 07:32:16;;;;;;;10.82;10.00;;;;;;;;;;5016432;28;20044;-65
2022/12/11 07:34:42;;;;;;;11.70;10.73;;;;;;;;;;5016204;28;20037;-65
2022/12/11 07:37:07;;;;;;;11.55;10.65;;;;;;;;;;5015336;28;20654;-60
2022/12/11 07:39:33;;;;;;;13.75;12.38;;;;;;;;;;5017118;28;20063;-59
2022/12/11 07:41:58;;;;;;;13.70;12.07;;;;;;;;;;5015347;28;20136;-59
2022/12/11 07:44:24;;;;;;;11.98;10.98;;;;;;;;;;5014230;28;21509;-59
2022/12/11 07:46:49;;;;;;;12.80;11.60;;;;;;;;;;5014624;28;20455;-59
2022/12/11 07:49:15;;;;;;;10.80;9.88;;;;;;;;;;5010012;28;20207;-59
2022/12/11 07:51:41;;;;;;;13.25;12.15;;;;;;;;;;5014805;28;20118;-65
2022/12/11 07:54:13;;;;;;;10.95;10.05;;;;;;;;;;5010875;28;20502;-65
2022/12/11 07:56:39;;;;;;;11.45;10.45;;;;;;;;;;5013756;28;20040;-64
2022/12/11 07:59:05;;;;;;;15.07;13.65;;;;;;;;;;5012437;28;20042;-65
2022/12/11 08:01:34;;;;;;;12.10;11.20;;;;;;;;;;5018805;28;20850;-64
2022/12/11 08:03:59;;;;;;;12.77;11.70;;;;;;;;;;5013636;28;20487;-66
2022/12/11 08:06:28;;;;;;;13.80;12.48;;;;;;;;;;5014526;28;20120;-58
2022/12/11 08:08:55;;;;;;;11.52;10.40;;;;;;;;;;5011009;28;20033;-64
2022/12/11 08:11:21;;;;;;;12.75;11.65;;;;;;;;;;5012053;28;20034;-65
2022/12/11 08:13:46;;;;;;;12.23;11.07;;;;;;;;;;5015160;28;20455;-65
2022/12/11 08:16:13;;;;;;;12.20;11.30;;;;;;;;;;5013499;28;20040;-64
2022/12/11 08:18:39;;;;;;;10.80;10.05;;;;;;;;;;5042262;28;20049;-63
2022/12/11 08:21:07;;;;;;;12.70;11.63;;;;;;;;;;5003089;28;20129;-65
2022/12/11 08:23:32;;;;;;;12.80;11.63;;;;;;;;;;5011673;28;20030;-64
2022/12/11 08:26:00;;;;;;;12.27;11.15;;;;;;;;;;5012319;28;20045;-57
2022/12/11 08:28:25;;;;;;;10.65;9.75;;;;;;;;;;5014044;28;20050;-65
2022/12/11 08:30:51;;;;;;;12.80;11.80;;;;;;;;;;5015596;28;20044;-63
2022/12/11 08:33:16;;;;;;;11.30;10.45;;;;;;;;;;5003078;28;20046;-64
2022/12/11 08:35:42;;;;;;;11.35;10.38;;;;;;;;;;5014817;28;20080;-60
2022/12/11 08:38:08;;;;;;;11.63;10.73;;;;;;;;;;5013885;28;20087;-59
2022/12/11 08:40:33;;;;;;;11.38;10.57;;;;;;;;;;5011190;28;20058;-60
2022/12/11 08:42:59;;;;;;;11.02;10.13;;;;;;;;;;5010386;28;20136;-59
2022/12/11 08:45:25;;;;;;;12.38;11.13;;;;;;;;;;5014509;28;20038;-59
2022/12/11 08:47:52;;;;;;;12.13;11.23;;;;;;;;;;5019154;28;20037;-58
2022/12/11 08:50:18;;;;;;;12.27;11.38;;;;;;;;;;5017221;28;20037;-65
2022/12/11 08:52:43;;;;;;;12.57;11.57;;;;;;;;;;5016340;28;20045;-58
2022/12/11 08:55:09;;;;;;;10.55;9.75;;;;;;;;;;5015279;28;20495;-60
2022/12/11 08:57:34;;;;;;;13.80;12.70;;;;;;;;;;5022861;28;20113;-59
2022/12/11 09:00:00;;;;;;;12.27;11.25;;;;;;;;;;5008169;28;20179;-64
2022/12/11 09:02:25;;;;;;;12.32;10.93;;;;;;;;;;5016189;28;20066;-60
2022/12/11 09:04:50;;;;;;;12.80;11.70;;;;;;;;;;5022071;28;20042;-58
2022/12/11 09:07:16;;;;;;;12.32;11.40;;;;;;;;;;5017652;28;20041;-58
2022/12/11 09:09:41;;;;;;;28.73;10.95;;;;;;;;;;5014948;28;20452;-58
2022/12/11 09:12:07;;;;;;;12.88;11.70;;;;;;;;;;5016120;28;20065;-57
2022/12/11 09:14:32;;;;;;;11.73;10.75;;;;;;;;;;5014211;28;20033;-56
2022/12/11 09:16:57;;;;;;;10.70;9.90;;;;;;;;;;5015145;28;20026;-57
2022/12/11 09:19:23;;;;;;;10.77;9.95;;;;;;;;;;5013942;28;20431;-56
2022/12/11 09:21:48;;;;;;;13.07;12.07;;;;;;;;;;5013379;28;20432;-62
2022/12/11 09:24:14;;;;;;;12.15;11.10;;;;;;;;;;5012914;28;20518;-58
2022/12/11 09:26:41;;;;;;;11.95;10.93;;;;;;;;;;5020151;28;20485;-55
2022/12/11 09:29:06;;;;;;;11.43;10.23;;;;;;;;;;5013235;28;20057;-56
2022/12/11 09:31:34;;;;;;;11.13;10.30;;;;;;;;;;5010072;28;20112;-58
2022/12/11 09:34:06;;;;;;;11.88;10.77;;;;;;;;;;5009022;28;20132;-58
2022/12/11 09:36:32;;;;;;;14.45;13.15;;;;;;;;;;5014824;28;20025;-58
2022/12/11 09:39:03;;;;;;;14.27;12.88;;;;;;;;;;5014317;28;20026;-58
2022/12/11 09:41:39;;;;;;;14.95;13.38;;;;;;;;;;5014015;28;20367;-59
2022/12/11 09:44:28;;;;;;;12.35;11.13;;;;;;;;;;5014751;28;20053;-58
2022/12/11 09:46:56;;;;;;;12.85;11.63;;;;;;;;;;5015603;28;20079;-58
2022/12/11 09:49:38;;;;;;;13.15;11.93;;;;;;;;;;5012217;28;20056;-58
2022/12/11 09:52:14;;;;;;;13.27;12.27;;;;;;;;;;5012670;28;20105;-57
2022/12/11 10:02:10;;;;;;;13.98;12.80;;;;;;;;;;5012452;28;20456;-59
2022/12/11 10:04:54;;;;;;;11.25;10.35;;;;;;;;;;5012740;28;20077;-59
2022/12/11 10:07:33;;;;;;;12.75;11.75;;;;;;;;;;5013741;28;20219;-59
2022/12/11 10:10:31;;;;;;;11.75;10.77;;;;;;;;;;5014554;28;20034;-57
2022/12/11 10:13:11;;;;;;;12.07;11.07;;;;;;;;;;5016112;28;20096;-57
2022/12/11 10:16:03;;;;;;;31.52;11.63;;;;;;;;;;5014959;28;20103;-58
2022/12/11 10:18:30;;;;;;;12.82;11.70;;;;;;;;;;5014045;28;20098;-57
2022/12/11 10:20:56;;;;;;;16.77;15.00;;;;;;;;;;5015215;28;20041;-57
2022/12/11 10:23:28;;;;;;;13.20;12.02;;;;;;;;;;5021298;28;20120;-57
2022/12/11 10:26:01;;;;;;;11.50;10.60;;;;;;;;;;5013643;28;20081;-57
2022/12/11 10:28:27;;;;;;;13.52;12.43;;;;;;;;;;5010910;28;20029;-57
2022/12/11 10:31:01;;;;;;;12.93;11.85;;;;;;;;;;5013160;28;20436;-57
2022/12/11 10:33:40;;;;;;;11.77;10.88;;;;;;;;;;5013780;28;20056;-57
2022/12/11 10:36:07;;;;;;;13.02;11.98;;;;;;;;;;5015565;28;20038;-58
2022/12/11 10:38:41;;;;;;;12.35;11.48;;;;;;;;;;5013123;28;20037;-58
2022/12/11 10:41:20;;;;;;;12.50;11.60;;;;;;;;;;5000358;28;20116;-57
2022/12/11 10:43:50;;;;;;;19.08;12.45;;;;;;;;;;5014695;28;20463;-57
2022/12/11 10:46:16;;;;;;;13.77;12.73;;;;;;;;;;5012704;28;20081;-56
2022/12/11 10:48:49;;;;;;;13.15;12.15;;;;;;;;;;5016482;28;20139;-58
2022/12/11 10:51:15;;;;;;;13.43;12.38;;;;;;;;;;5016634;28;20041;-57
2022/12/11 10:53:42;;;;;;;12.30;11.30;;;;;;;;;;5010782;28;20326;-57
2022/12/11 10:56:08;;;;;;;48.90;33.38;;;;;;;;;;5012853;28;20152;-57
2022/12/11 10:58:39;;;;;;;44.45;26.88;;;;;;;;;;5009760;28;20151;-57
2022/12/11 11:01:20;;;;;;;44.35;24.70;;;;;;;;;;5014490;28;20044;-58
2022/12/11 11:03:57;;;;;;;16.25;14.73;;;;;;;;;;5009208;28;20390;-57
2022/12/11 11:06:24;;;;;;;12.30;11.30;;;;;;;;;;5010319;28;20040;-58
2022/12/11 11:08:55;;;;;;;13.02;12.05;;;;;;;;;;5013245;28;20030;-57
2022/12/11 11:11:27;;;;;;;14.07;12.98;;;;;;;;;;5015982;28;20041;-57
2022/12/11 11:14:12;;;;;;;10.95;10.07;;;;;;;;;;5014346;28;20116;-57
2022/12/11 11:16:39;;;;;;;14.23;13.02;;;;;;;;;;5014849;28;20729;-57
2022/12/11 11:19:05;;;;;;;14.00;12.07;;;;;;;;;;5008767;28;20053;-57
2022/12/11 11:21:32;;;;;;;12.75;11.57;;;;;;;;;;5013824;28;20087;-57
2022/12/11 11:23:58;;;;;;;14.35;13.20;;;;;;;;;;5009182;28;20044;-57
2022/12/11 11:26:24;;;;;;;13.30;12.20;;;;;;;;;;5009630;28;20033;-57
2022/12/11 11:28:55;;;;;;;18.45;15.02;;;;;;;;;;5013678;28;20038;-57
2022/12/11 11:31:29;;;;;;;15.27;13.85;;;;;;;;;;5010709;28;20030;-58
2022/12/11 11:34:02;;;;;;;12.13;11.23;;;;;;;;;;5007008;28;20087;-58
2022/12/11 11:36:31;;;;;;;11.35;10.55;;;;;;;;;;5016591;28;20026;-57
2022/12/11 11:39:17;;;;;;;11.55;10.75;;;;;;;;;;5004286;28;20572;-57
2022/12/11 11:42:11;;;;;;;12.82;11.68;;;;;;;;;;5010176;28;20045;-57
2022/12/11 11:45:03;;;;;;;12.27;11.05;;;;;;;;;;5012216;28;20517;-58
2022/12/11 11:47:49;;;;;;;;;;;;;;;;;;5011175;28;20097;-57
2022/12/11 11:50:23;;;;;;;15.02;13.57;;;;;;;;;;5010907;28;19924;-55
2022/12/11 11:53:03;;;;;;;12.13;11.02;;;;;;;;;;5010259;28;20040;-56
2022/12/11 11:55:38;;;;;;;13.45;12.25;;;;;;;;;;5010029;28;20034;-56
2022/12/11 11:58:18;;;;;;;14.02;12.73;;;;;;;;;;5009162;28;20056;-58
2022/12/11 12:00:43;;;;;;;12.93;11.88;;;;;;;;;;5015169;28;20030;-61
2022/12/11 12:03:13;;;;;;;11.93;10.90;;;;;;;;;;5011114;28;20096;-58
2022/12/11 12:05:48;;;;;;;13.75;12.15;;;;;;;;;;5012338;28;20120;-59
2022/12/11 12:08:52;;;;;;;12.48;11.55;;;;;;;;;;5011683;28;20081;-59
2022/12/11 12:11:37;;;;;;;12.93;12.02;;;;;;;;;;5011126;28;20117;-59
2022/12/11 12:14:25;;;;;;;13.70;12.52;;;;;;;;;;5018108;28;20061;-60
2022/12/11 12:17:18;;;;;;;11.23;10.25;;;;;;;;;;5010386;28;20053;-58
2022/12/11 12:19:47;;;;;;;12.23;11.23;;;;;;;;;;5013619;28;20092;-58
2022/12/11 12:22:44;;;;;;;14.30;12.82;;;;;;;;;;5013257;28;20040;-59
2022/12/11 12:25:55;;;;;;;12.95;11.88;;;;;;;;;;5013184;28;20064;-58
2022/12/11 12:28:55;;;;;;;12.43;11.38;;;;;;;;;;5000712;28;20037;-57
2022/12/11 12:31:39;;;;;;;12.23;11.32;;;;;;;;;;4921556;29;20040;-57
2022/12/11 12:34:26;;;;;;;12.35;11.35;;;;;;;;;;5008872;28;20074;-58
2022/12/11 12:37:14;;;;;;;14.25;12.60;;;;;;;;;;5013117;28;20041;-59
2022/12/11 12:39:48;;;;;;;13.82;12.70;;;;;;;;;;5018574;28;20042;-57
2022/12/11 12:42:31;;;;;;;13.70;12.48;;;;;;;;;;5012860;28;20026;-58
2022/12/11 12:45:13;;;;;;;13.45;12.35;;;;;;;;;;5013911;28;20095;-59
2022/12/11 12:47:41;;;;;;;14.48;13.18;;;;;;;;;;5011255;28;20026;-60
2022/12/11 12:50:15;;;;;;;12.30;11.27;;;;;;;;;;5018350;28;20037;-58
2022/12/11 12:52:42;;;;;;;14.45;13.25;;;;;;;;;;5017507;28;20149;-60
2022/12/11 12:55:28;;;;;;;13.88;12.75;;;;;;;;;;5016084;28;20048;-59
2022/12/11 12:58:00;;;;;;;13.40;12.30;;;;;;;;;;5015324;28;20025;-56
2022/12/11 13:00:33;;;;;;;15.95;13.75;;;;;;;;;;5016048;28;20029;-59
2022/12/11 13:03:14;;;;;;;11.27;10.48;;;;;;;;;;5023109;28;20063;-59
2022/12/11 13:05:42;;;;;;;11.47;10.63;;;;;;;;;;5017621;28;20029;-57
2022/12/11 13:08:09;;;;;;;13.13;12.00;;;;;;;;;;5018894;28;20051;-54
2022/12/11 13:10:37;;;;;;;11.68;10.77;;;;;;;;;;5027081;28;20088;-57
2022/12/11 13:13:05;;;;;;;15.02;13.57;;;;;;;;;;5023572;28;20017;-56
2022/12/11 13:15:33;;;;;;;13.20;12.13;;;;;;;;;;5015371;28;20037;-57
2022/12/11 13:18:01;;;;;;;13.00;11.93;;;;;;;;;;5011467;28;20044;-57
2022/12/11 13:20:30;;;;;;;10.88;10.00;;;;;;;;;;5010719;28;20116;-57
2022/12/11 13:23:05;;;;;;;11.70;10.90;;;;;;;;;;5014460;28;20036;-57
2022/12/11 13:25:43;;;;;;;13.00;12.02;;;;;;;;;;5013530;28;20647;-57
2022/12/11 13:28:23;;;;;;;13.35;12.18;;;;;;;;;;5012425;28;20039;-56
2022/12/11 13:31:00;;;;;;;13.82;12.75;;;;;;;;;;5012690;28;20048;-57
2022/12/11 13:33:28;;;;;;;13.05;11.95;;;;;;;;;;5014481;28;20112;-55
2022/12/11 13:36:09;;;;;;;14.13;13.05;;;;;;;;;;5014494;28;20530;-57
2022/12/11 13:38:44;;;;;;;11.95;11.05;;;;;;;;;;5017075;28;20051;-52
2022/12/11 13:41:11;;;;;;;12.48;11.38;;;;;;;;;;5016179;28;20041;-53
2022/12/11 13:43:40;;;;;;;15.80;14.32;;;;;;;;;;5011475;28;20033;-56
2022/12/11 13:46:10;;;;;;;15.35;12.90;;;;;;;;;;5012495;28;20119;-55
2022/12/11 13:48:36;;;;;;;13.30;12.10;;;;;;;;;;5011915;28;20040;-55
2022/12/11 13:51:03;;;;;;;13.57;12.25;;;;;;;;;;5012404;28;20068;-55
2022/12/11 13:53:29;;;;;;;13.30;12.18;;;;;;;;;;5013352;28;20045;-53
2022/12/11 13:56:06;;;;;;;13.48;12.07;;;;;;;;;;5043688;28;20033;-57
2022/12/11 13:58:38;;;;;;;16.95;15.10;;;;;;;;;;5013442;28;20120;-54
2022/12/11 14:01:07;;;;;;;12.75;11.65;;;;;;;;;;5015498;28;20191;-56
2022/12/11 14:03:33;;;;;;;12.82;11.85;;;;;;;;;;5013715;28;20034;-54
2022/12/11 14:06:00;;;;;;;13.70;12.65;;;;;;;;;;5015459;28;20029;-52
2022/12/11 14:08:35;;;;;;;13.45;11.52;;;;;;;;;;5015307;28;20755;-52
2022/12/11 14:11:01;;;;;;;13.13;12.13;;;;;;;;;;5014093;28;20084;-53
2022/12/11 14:13:32;;;;;;;18.60;15.57;;;;;;;;;;5016018;28;20116;-54
2022/12/11 14:15:58;;;;;;;15.23;13.90;;;;;;;;;;5012600;28;20037;-54
2022/12/11 14:18:27;;;;;;;12.00;11.15;;;;;;;;;;5012200;28;20033;-53
2022/12/11 14:20:54;;;;;;;14.15;12.98;;;;;;;;;;5013358;28;20084;-55
2022/12/11 14:23:24;;;;;;;13.07;11.88;;;;;;;;;;5011663;28;20060;-52
2022/12/11 14:25:56;;;;;;;12.63;11.50;;;;;;;;;;5013572;28;20037;-53
2022/12/11 14:28:26;;;;;;;15.88;12.43;;;;;;;;;;5011358;28;20053;-53
2022/12/11 14:30:54;;;;;;;11.98;11.05;;;;;;;;;;5011863;28;20038;-55
2022/12/11 14:33:22;;;;;;;13.98;12.77;;;;;;;;;;5008145;28;20042;-54
2022/12/11 14:35:48;;;;;;;12.90;11.93;;;;;;;;;;5014057;28;20037;-55
2022/12/11 14:38:31;;;;;;;12.88;11.98;;;;;;;;;;5010631;28;20053;-55
2022/12/11 14:41:04;;;;;;;19.90;13.20;;;;;;;;;;5010416;28;20034;-51
2022/12/11 14:43:35;;;;;;;12.70;11.55;;;;;;;;;;5011030;28;20022;-58
2022/12/11 14:46:09;;;;;;;12.20;11.20;;;;;;;;;;5012028;28;20045;-55
2022/12/11 14:48:49;;;;;;;13.65;12.55;;;;;;;;;;5011135;28;20049;-53
2022/12/11 14:51:17;;;;;;;13.52;12.27;;;;;;;;;;5010430;28;20425;-54
2022/12/11 14:53:46;;;;;;;15.48;14.25;;;;;;;;;;5020025;28;20034;-54